sensor_id;sensor_type;location;lat;lon;timestamp;temperature;humidity
16229;DHT22;8222;51.462;12.630;2023-06-22T00:00:15;22.70;99.90
16229;DHT22;8222;51.462;12.630;2023-06-22T00:02:41;22.70;99.90
16229;DHT22;8222;51.462;12.630;2023-06-22T00:05:07;22.70;99.90
16229;DHT22;8222;51.462;12.630;2023-06-22T00:07:32;22.70;99.90
16229;DHT22;8222;51.462;12.630;2023-06-22T00:09:58;22.60;99.90
16229;DHT22;8222;51.462;12.630;2023-06-22T00:12:24;22.60;99.90
16229;DHT22;8222;51.462;12.630;2023-06-22T00:14:49;22.70;99.90
16229;DHT22;8222;51.462;12.630;2023-06-22T00:17:15;22.70;99.90
16229;DHT22;8222;51.462;12.630;2023-06-22T00:19:43;22.50;99.90
16229;DHT22;8222;51.462;12.630;2023-06-22T00:22:11;22.50;99.90
16229;DHT22;8222;51.462;12.630;2023-06-22T00:24:39;22.30;99.90
16229;DHT22;8222;51.462;12.630;2023-06-22T00:27:04;22.40;99.90
16229;DHT22;8222;51.462;12.630;2023-06-22T00:29:33;22.40;99.90
16229;DHT22;8222;51.462;12.630;2023-06-22T00:31:59;22.30;99.90
16229;DHT22;8222;51.462;12.630;2023-06-22T00:34:25;22.40;99.90
16229;DHT22;8222;51.462;12.630;2023-06-22T00:36:50;22.30;99.90
16229;DHT22;8222;51.462;12.630;2023-06-22T00:39:17;22.40;99.90
16229;DHT22;8222;51.462;12.630;2023-06-22T00:41:43;22.40;99.90
16229;DHT22;8222;51.462;12.630;2023-06-22T00:44:10;22.30;99.90
16229;DHT22;8222;51.462;12.630;2023-06-22T00:46:36;22.20;99.90
16229;DHT22;8222;51.462;12.630;2023-06-22T00:49:02;22.20;99.90
16229;DHT22;8222;51.462;12.630;2023-06-22T00:51:31;22.40;99.90
16229;DHT22;8222;51.462;12.630;2023-06-22T00:54:02;22.40;99.90
16229;DHT22;8222;51.462;12.630;2023-06-22T00:56:27;22.30;99.90
16229;DHT22;8222;51.462;12.630;2023-06-22T00:59:00;22.40;99.90
16229;DHT22;8222;51.462;12.630;2023-06-22T01:03:59;22.20;99.90
16229;DHT22;8222;51.462;12.630;2023-06-22T01:06:37;22.20;99.90
16229;DHT22;8222;51.462;12.630;2023-06-22T01:09:15;22.10;99.90
16229;DHT22;8222;51.462;12.630;2023-06-22T01:12:01;22.20;99.90
16229;DHT22;8222;51.462;12.630;2023-06-22T01:14:37;22.10;99.90
16229;DHT22;8222;51.462;12.630;2023-06-22T01:17:05;21.90;99.90
16229;DHT22;8222;51.462;12.630;2023-06-22T01:19:47;21.90;99.90
16229;DHT22;8222;51.462;12.630;2023-06-22T01:22:18;21.80;99.90
16229;DHT22;8222;51.462;12.630;2023-06-22T01:28:03;21.80;99.90
16229;DHT22;8222;51.462;12.630;2023-06-22T01:30:33;21.80;99.90
16229;DHT22;8222;51.462;12.630;2023-06-22T01:33:05;21.70;99.90
16229;DHT22;8222;51.462;12.630;2023-06-22T01:35:34;21.50;99.90
16229;DHT22;8222;51.462;12.630;2023-06-22T01:38:03;21.50;99.90
16229;DHT22;8222;51.462;12.630;2023-06-22T01:40:33;21.50;99.90
16229;DHT22;8222;51.462;12.630;2023-06-22T01:43:00;21.50;99.90
16229;DHT22;8222;51.462;12.630;2023-06-22T01:45:27;21.50;99.90
16229;DHT22;8222;51.462;12.630;2023-06-22T01:47:54;21.40;99.90
16229;DHT22;8222;51.462;12.630;2023-06-22T01:50:20;21.50;99.90
16229;DHT22;8222;51.462;12.630;2023-06-22T01:52:46;21.50;99.90
16229;DHT22;8222;51.462;12.630;2023-06-22T01:55:11;21.60;99.90
16229;DHT22;8222;51.462;12.630;2023-06-22T01:57:39;21.40;99.90
16229;DHT22;8222;51.462;12.630;2023-06-22T02:00:13;21.50;99.90
16229;DHT22;8222;51.462;12.630;2023-06-22T02:05:43;21.70;99.90
16229;DHT22;8222;51.462;12.630;2023-06-22T02:08:25;21.50;99.90
16229;DHT22;8222;51.462;12.630;2023-06-22T02:10:54;21.40;99.90
16229;DHT22;8222;51.462;12.630;2023-06-22T02:13:21;21.30;99.90
16229;DHT22;8222;51.462;12.630;2023-06-22T02:15:49;21.30;99.90
16229;DHT22;8222;51.462;12.630;2023-06-22T02:18:15;21.40;99.90
16229;DHT22;8222;51.462;12.630;2023-06-22T02:20:41;21.30;99.90
16229;DHT22;8222;51.462;12.630;2023-06-22T02:23:07;21.10;99.90
16229;DHT22;8222;51.462;12.630;2023-06-22T02:25:33;21.00;99.90
16229;DHT22;8222;51.462;12.630;2023-06-22T02:28:02;21.00;99.90
16229;DHT22;8222;51.462;12.630;2023-06-22T02:30:28;21.00;99.90
16229;DHT22;8222;51.462;12.630;2023-06-22T02:32:56;21.00;99.90
16229;DHT22;8222;51.462;12.630;2023-06-22T02:35:30;20.90;99.90
16229;DHT22;8222;51.462;12.630;2023-06-22T02:38:06;20.90;99.90
16229;DHT22;8222;51.462;12.630;2023-06-22T02:40:31;20.90;99.90
16229;DHT22;8222;51.462;12.630;2023-06-22T02:42:58;21.00;99.90
16229;DHT22;8222;51.462;12.630;2023-06-22T02:45:29;21.00;99.90
16229;DHT22;8222;51.462;12.630;2023-06-22T02:47:55;21.10;99.90
16229;DHT22;8222;51.462;12.630;2023-06-22T02:50:24;21.00;99.90
16229;DHT22;8222;51.462;12.630;2023-06-22T02:52:50;21.00;99.90
16229;DHT22;8222;51.462;12.630;2023-06-22T02:55:15;21.00;99.90
16229;DHT22;8222;51.462;12.630;2023-06-22T02:57:41;21.00;99.90
16229;DHT22;8222;51.462;12.630;2023-06-22T03:00:10;21.10;99.90
16229;DHT22;8222;51.462;12.630;2023-06-22T03:02:45;21.10;99.90
16229;DHT22;8222;51.462;12.630;2023-06-22T03:05:14;21.10;99.90
16229;DHT22;8222;51.462;12.630;2023-06-22T03:07:44;21.30;99.90
16229;DHT22;8222;51.462;12.630;2023-06-22T03:10:11;21.20;99.90
16229;DHT22;8222;51.462;12.630;2023-06-22T03:12:40;21.30;99.90
16229;DHT22;8222;51.462;12.630;2023-06-22T03:15:07;21.40;99.90
16229;DHT22;8222;51.462;12.630;2023-06-22T03:17:37;21.30;99.90
16229;DHT22;8222;51.462;12.630;2023-06-22T03:20:05;21.30;99.90
16229;DHT22;8222;51.462;12.630;2023-06-22T03:22:37;21.30;99.90
16229;DHT22;8222;51.462;12.630;2023-06-22T03:25:03;21.20;99.90
16229;DHT22;8222;51.462;12.630;2023-06-22T03:27:32;21.20;99.90
16229;DHT22;8222;51.462;12.630;2023-06-22T03:29:59;21.20;99.90
16229;DHT22;8222;51.462;12.630;2023-06-22T03:32:25;21.20;99.90
16229;DHT22;8222;51.462;12.630;2023-06-22T03:34:53;21.20;99.90
16229;DHT22;8222;51.462;12.630;2023-06-22T03:37:19;21.30;99.90
16229;DHT22;8222;51.462;12.630;2023-06-22T03:39:45;21.30;99.90
16229;DHT22;8222;51.462;12.630;2023-06-22T03:42:10;21.30;99.90
16229;DHT22;8222;51.462;12.630;2023-06-22T03:44:36;21.40;99.90
16229;DHT22;8222;51.462;12.630;2023-06-22T03:47:04;21.50;99.90
16229;DHT22;8222;51.462;12.630;2023-06-22T03:49:29;21.50;99.90
16229;DHT22;8222;51.462;12.630;2023-06-22T03:51:55;21.70;99.90
16229;DHT22;8222;51.462;12.630;2023-06-22T03:54:23;21.70;99.90
16229;DHT22;8222;51.462;12.630;2023-06-22T03:56:49;21.70;99.90
16229;DHT22;8222;51.462;12.630;2023-06-22T03:59:18;21.70;99.90
16229;DHT22;8222;51.462;12.630;2023-06-22T04:01:44;21.70;99.90
16229;DHT22;8222;51.462;12.630;2023-06-22T04:04:12;21.60;99.90
16229;DHT22;8222;51.462;12.630;2023-06-22T04:06:38;21.60;99.90
16229;DHT22;8222;51.462;12.630;2023-06-22T04:09:06;21.60;99.90
16229;DHT22;8222;51.462;12.630;2023-06-22T04:11:32;21.50;99.90
16229;DHT22;8222;51.462;12.630;2023-06-22T04:14:00;21.50;99.90
16229;DHT22;8222;51.462;12.630;2023-06-22T04:16:26;21.60;99.90
16229;DHT22;8222;51.462;12.630;2023-06-22T04:18:53;21.60;99.90
16229;DHT22;8222;51.462;12.630;2023-06-22T04:21:21;21.70;99.90
16229;DHT22;8222;51.462;12.630;2023-06-22T04:23:47;21.90;99.90
16229;DHT22;8222;51.462;12.630;2023-06-22T04:26:18;22.20;99.90
16229;DHT22;8222;51.462;12.630;2023-06-22T04:28:48;22.30;99.90
16229;DHT22;8222;51.462;12.630;2023-06-22T04:31:19;22.60;99.90
16229;DHT22;8222;51.462;12.630;2023-06-22T04:33:45;22.60;99.90
16229;DHT22;8222;51.462;12.630;2023-06-22T04:36:11;22.60;99.90
16229;DHT22;8222;51.462;12.630;2023-06-22T04:38:39;22.70;99.90
16229;DHT22;8222;51.462;12.630;2023-06-22T04:41:04;22.80;99.90
16229;DHT22;8222;51.462;12.630;2023-06-22T04:43:30;22.80;99.90
16229;DHT22;8222;51.462;12.630;2023-06-22T04:45:57;23.00;99.90
16229;DHT22;8222;51.462;12.630;2023-06-22T04:48:31;23.10;99.90
16229;DHT22;8222;51.462;12.630;2023-06-22T04:51:01;23.20;99.90
16229;DHT22;8222;51.462;12.630;2023-06-22T04:53:32;23.40;99.90
16229;DHT22;8222;51.462;12.630;2023-06-22T04:56:00;23.40;99.90
16229;DHT22;8222;51.462;12.630;2023-06-22T04:58:26;23.60;99.90
16229;DHT22;8222;51.462;12.630;2023-06-22T05:00:58;23.40;99.90
16229;DHT22;8222;51.462;12.630;2023-06-22T05:03:25;23.40;99.90
16229;DHT22;8222;51.462;12.630;2023-06-22T05:05:53;23.50;99.90
16229;DHT22;8222;51.462;12.630;2023-06-22T05:08:23;23.50;99.90
16229;DHT22;8222;51.462;12.630;2023-06-22T05:10:54;23.50;99.90
16229;DHT22;8222;51.462;12.630;2023-06-22T05:13:19;23.70;99.90
16229;DHT22;8222;51.462;12.630;2023-06-22T05:15:47;23.70;99.90
16229;DHT22;8222;51.462;12.630;2023-06-22T05:18:13;23.70;99.90
16229;DHT22;8222;51.462;12.630;2023-06-22T05:20:38;23.70;99.90
16229;DHT22;8222;51.462;12.630;2023-06-22T05:23:04;23.60;99.90
16229;DHT22;8222;51.462;12.630;2023-06-22T05:25:32;23.60;99.90
16229;DHT22;8222;51.462;12.630;2023-06-22T05:31:38;23.50;99.90
16229;DHT22;8222;51.462;12.630;2023-06-22T05:34:05;23.60;99.90
16229;DHT22;8222;51.462;12.630;2023-06-22T05:36:33;23.70;99.90
16229;DHT22;8222;51.462;12.630;2023-06-22T05:39:10;23.90;99.90
16229;DHT22;8222;51.462;12.630;2023-06-22T05:41:36;23.80;99.90
16229;DHT22;8222;51.462;12.630;2023-06-22T05:44:02;24.00;99.90
16229;DHT22;8222;51.462;12.630;2023-06-22T05:46:29;24.20;99.90
16229;DHT22;8222;51.462;12.630;2023-06-22T05:48:55;24.40;99.90
16229;DHT22;8222;51.462;12.630;2023-06-22T05:51:21;24.40;99.90
16229;DHT22;8222;51.462;12.630;2023-06-22T05:53:49;24.50;99.90
16229;DHT22;8222;51.462;12.630;2023-06-22T05:56:18;24.50;99.90
16229;DHT22;8222;51.462;12.630;2023-06-22T05:58:46;24.60;99.90
16229;DHT22;8222;51.462;12.630;2023-06-22T06:01:12;24.70;99.90
16229;DHT22;8222;51.462;12.630;2023-06-22T06:03:40;24.70;99.90
16229;DHT22;8222;51.462;12.630;2023-06-22T06:06:07;24.70;99.90
16229;DHT22;8222;51.462;12.630;2023-06-22T06:08:32;24.90;99.90
16229;DHT22;8222;51.462;12.630;2023-06-22T06:10:58;25.10;99.90
16229;DHT22;8222;51.462;12.630;2023-06-22T06:13:26;25.30;99.90
16229;DHT22;8222;51.462;12.630;2023-06-22T06:15:55;25.40;99.90
16229;DHT22;8222;51.462;12.630;2023-06-22T06:18:21;25.70;99.90
16229;DHT22;8222;51.462;12.630;2023-06-22T06:20:47;25.70;99.90
16229;DHT22;8222;51.462;12.630;2023-06-22T06:23:15;25.80;99.90
16229;DHT22;8222;51.462;12.630;2023-06-22T06:25:45;26.00;99.90
16229;DHT22;8222;51.462;12.630;2023-06-22T06:28:13;26.10;99.90
16229;DHT22;8222;51.462;12.630;2023-06-22T06:30:41;26.00;99.90
16229;DHT22;8222;51.462;12.630;2023-06-22T06:33:11;26.00;99.90
16229;DHT22;8222;51.462;12.630;2023-06-22T06:35:40;26.10;99.90
16229;DHT22;8222;51.462;12.630;2023-06-22T06:38:06;26.10;99.90
16229;DHT22;8222;51.462;12.630;2023-06-22T06:40:31;26.20;99.90
16229;DHT22;8222;51.462;12.630;2023-06-22T06:42:57;26.50;99.90
16229;DHT22;8222;51.462;12.630;2023-06-22T06:45:23;26.50;99.90
16229;DHT22;8222;51.462;12.630;2023-06-22T06:47:50;26.60;99.90
16229;DHT22;8222;51.462;12.630;2023-06-22T06:50:18;26.70;99.90
16229;DHT22;8222;51.462;12.630;2023-06-22T06:52:44;26.70;99.90
16229;DHT22;8222;51.462;12.630;2023-06-22T06:55:15;26.80;99.90
16229;DHT22;8222;51.462;12.630;2023-06-22T06:57:41;26.90;99.90
16229;DHT22;8222;51.462;12.630;2023-06-22T07:00:14;27.00;99.90
16229;DHT22;8222;51.462;12.630;2023-06-22T07:02:45;27.00;99.90
16229;DHT22;8222;51.462;12.630;2023-06-22T07:05:12;27.20;99.90
16229;DHT22;8222;51.462;12.630;2023-06-22T07:07:38;27.30;99.90
16229;DHT22;8222;51.462;12.630;2023-06-22T07:10:08;27.50;99.90
16229;DHT22;8222;51.462;12.630;2023-06-22T07:12:34;27.60;99.90
16229;DHT22;8222;51.462;12.630;2023-06-22T07:15:04;27.80;99.90
16229;DHT22;8222;51.462;12.630;2023-06-22T07:17:37;28.00;99.90
16229;DHT22;8222;51.462;12.630;2023-06-22T07:20:03;28.10;99.90
16229;DHT22;8222;51.462;12.630;2023-06-22T07:22:34;28.30;99.90
16229;DHT22;8222;51.462;12.630;2023-06-22T07:24:59;28.20;99.90
16229;DHT22;8222;51.462;12.630;2023-06-22T07:27:25;28.40;99.90
16229;DHT22;8222;51.462;12.630;2023-06-22T07:29:51;28.40;99.90
16229;DHT22;8222;51.462;12.630;2023-06-22T07:32:20;28.40;99.90
16229;DHT22;8222;51.462;12.630;2023-06-22T07:34:48;28.50;99.90
16229;DHT22;8222;51.462;12.630;2023-06-22T07:37:14;28.70;99.90
16229;DHT22;8222;51.462;12.630;2023-06-22T07:39:39;28.60;99.90
16229;DHT22;8222;51.462;12.630;2023-06-22T07:42:08;28.50;99.90
16229;DHT22;8222;51.462;12.630;2023-06-22T07:44:37;28.50;99.90
16229;DHT22;8222;51.462;12.630;2023-06-22T07:47:05;28.60;99.90
16229;DHT22;8222;51.462;12.630;2023-06-22T07:49:35;28.60;99.90
16229;DHT22;8222;51.462;12.630;2023-06-22T07:52:07;28.80;99.90
16229;DHT22;8222;51.462;12.630;2023-06-22T07:54:32;29.00;99.90
16229;DHT22;8222;51.462;12.630;2023-06-22T07:57:01;29.10;99.90
16229;DHT22;8222;51.462;12.630;2023-06-22T07:59:27;29.60;99.90
16229;DHT22;8222;51.462;12.630;2023-06-22T08:01:52;29.70;99.90
16229;DHT22;8222;51.462;12.630;2023-06-22T08:04:26;29.80;99.90
16229;DHT22;8222;51.462;12.630;2023-06-22T08:06:58;29.80;99.90
16229;DHT22;8222;51.462;12.630;2023-06-22T08:09:53;29.70;99.90
16229;DHT22;8222;51.462;12.630;2023-06-22T08:12:21;29.70;99.90
16229;DHT22;8222;51.462;12.630;2023-06-22T08:14:49;29.80;99.90
16229;DHT22;8222;51.462;12.630;2023-06-22T08:17:19;30.00;99.90
16229;DHT22;8222;51.462;12.630;2023-06-22T08:19:45;30.20;99.90
16229;DHT22;8222;51.462;12.630;2023-06-22T08:22:16;30.20;99.90
16229;DHT22;8222;51.462;12.630;2023-06-22T08:24:50;30.20;99.90
16229;DHT22;8222;51.462;12.630;2023-06-22T08:27:21;30.30;99.90
16229;DHT22;8222;51.462;12.630;2023-06-22T08:29:56;30.20;99.90
16229;DHT22;8222;51.462;12.630;2023-06-22T08:32:27;29.90;99.90
16229;DHT22;8222;51.462;12.630;2023-06-22T08:35:00;29.80;99.90
16229;DHT22;8222;51.462;12.630;2023-06-22T08:37:50;29.80;99.90
16229;DHT22;8222;51.462;12.630;2023-06-22T08:40:26;29.80;99.90
16229;DHT22;8222;51.462;12.630;2023-06-22T08:42:58;30.20;99.90
16229;DHT22;8222;51.462;12.630;2023-06-22T08:45:31;30.40;99.90
16229;DHT22;8222;51.462;12.630;2023-06-22T08:48:11;30.40;99.90
16229;DHT22;8222;51.462;12.630;2023-06-22T08:50:56;30.40;99.90
16229;DHT22;8222;51.462;12.630;2023-06-22T08:53:25;30.50;99.90
16229;DHT22;8222;51.462;12.630;2023-06-22T08:55:56;30.70;99.90
16229;DHT22;8222;51.462;12.630;2023-06-22T09:01:38;30.40;99.90
16229;DHT22;8222;51.462;12.630;2023-06-22T09:04:15;30.40;99.90
16229;DHT22;8222;51.462;12.630;2023-06-22T09:06:43;30.80;99.90
16229;DHT22;8222;51.462;12.630;2023-06-22T09:09:21;30.90;99.90
16229;DHT22;8222;51.462;12.630;2023-06-22T09:15:13;31.00;99.90
16229;DHT22;8222;51.462;12.630;2023-06-22T09:17:50;31.40;99.90
16229;DHT22;8222;51.462;12.630;2023-06-22T09:20:24;31.60;99.90
16229;DHT22;8222;51.462;12.630;2023-06-22T09:22:58;32.00;99.90
16229;DHT22;8222;51.462;12.630;2023-06-22T09:25:48;32.00;99.90
16229;DHT22;8222;51.462;12.630;2023-06-22T09:28:40;31.90;99.90
16229;DHT22;8222;51.462;12.630;2023-06-22T09:31:39;32.00;99.90
16229;DHT22;8222;51.462;12.630;2023-06-22T09:34:41;32.40;99.90
16229;DHT22;8222;51.462;12.630;2023-06-22T09:37:11;32.70;98.70
16229;DHT22;8222;51.462;12.630;2023-06-22T09:40:06;32.70;97.70
16229;DHT22;8222;51.462;12.630;2023-06-22T09:42:49;32.70;99.10
16229;DHT22;8222;51.462;12.630;2023-06-22T09:45:44;32.30;97.70
16229;DHT22;8222;51.462;12.630;2023-06-22T09:48:19;32.30;99.90
16229;DHT22;8222;51.462;12.630;2023-06-22T09:54:43;32.60;98.10
16229;DHT22;8222;51.462;12.630;2023-06-22T09:57:42;32.70;97.00
16229;DHT22;8222;51.462;12.630;2023-06-22T10:00:17;32.60;95.60
16229;DHT22;8222;51.462;12.630;2023-06-22T10:03:00;32.70;95.40
16229;DHT22;8222;51.462;12.630;2023-06-22T10:05:45;32.80;95.10
16229;DHT22;8222;51.462;12.630;2023-06-22T10:11:42;32.90;94.50
16229;DHT22;8222;51.462;12.630;2023-06-22T10:14:21;32.90;91.40
16229;DHT22;8222;51.462;12.630;2023-06-22T10:17:28;33.20;91.40
16229;DHT22;8222;51.462;12.630;2023-06-22T10:20:20;33.40;90.50
16229;DHT22;8222;51.462;12.630;2023-06-22T10:23:11;33.40;91.50
16229;DHT22;8222;51.462;12.630;2023-06-22T10:26:09;33.70;90.50
16229;DHT22;8222;51.462;12.630;2023-06-22T10:28:52;33.70;87.30
16229;DHT22;8222;51.462;12.630;2023-06-22T10:32:16;33.40;89.60
16229;DHT22;8222;51.462;12.630;2023-06-22T10:35:01;33.30;90.90
16229;DHT22;8222;51.462;12.630;2023-06-22T10:38:34;33.30;91.10
16229;DHT22;8222;51.462;12.630;2023-06-22T10:41:46;33.10;87.40
16229;DHT22;8222;51.462;12.630;2023-06-22T10:44:43;33.00;89.80
16229;DHT22;8222;51.462;12.630;2023-06-22T10:56:55;33.40;84.90
16229;DHT22;8222;51.462;12.630;2023-06-22T10:59:46;33.70;85.20
16229;DHT22;8222;51.462;12.630;2023-06-22T11:06:13;34.50;82.30
16229;DHT22;8222;51.462;12.630;2023-06-22T11:09:07;34.70;79.40
16229;DHT22;8222;51.462;12.630;2023-06-22T11:22:40;34.30;80.00
16229;DHT22;8222;51.462;12.630;2023-06-22T11:33:22;34.60;76.20
16229;DHT22;8222;51.462;12.630;2023-06-22T11:40:08;34.70;74.80
16229;DHT22;8222;51.462;12.630;2023-06-22T11:43:04;35.00;76.60
16229;DHT22;8222;51.462;12.630;2023-06-22T11:52:45;35.70;74.40
16229;DHT22;8222;51.462;12.630;2023-06-22T12:04:59;35.50;75.40
16229;DHT22;8222;51.462;12.630;2023-06-22T12:14:32;34.40;75.00
16229;DHT22;8222;51.462;12.630;2023-06-22T12:17:09;34.70;76.50
16229;DHT22;8222;51.462;12.630;2023-06-22T12:40:50;35.30;72.10
16229;DHT22;8222;51.462;12.630;2023-06-22T12:44:03;35.70;72.30
16229;DHT22;8222;51.462;12.630;2023-06-22T12:47:30;35.60;70.70
16229;DHT22;8222;51.462;12.630;2023-06-22T12:51:07;35.40;72.90
16229;DHT22;8222;51.462;12.630;2023-06-22T13:04:44;35.70;73.80
16229;DHT22;8222;51.462;12.630;2023-06-22T13:15:06;35.90;70.60
16229;DHT22;8222;51.462;12.630;2023-06-22T13:32:59;35.50;69.20
16229;DHT22;8222;51.462;12.630;2023-06-22T13:49:58;36.10;69.80
16229;DHT22;8222;51.462;12.630;2023-06-22T13:52:48;35.90;70.00
16229;DHT22;8222;51.462;12.630;2023-06-22T13:58:38;35.70;71.20
16229;DHT22;8222;51.462;12.630;2023-06-22T14:01:18;35.50;71.50
16229;DHT22;8222;51.462;12.630;2023-06-22T14:04:00;35.50;71.10
16229;DHT22;8222;51.462;12.630;2023-06-22T14:06:41;35.50;72.30
16229;DHT22;8222;51.462;12.630;2023-06-22T14:09:27;35.90;72.40
16229;DHT22;8222;51.462;12.630;2023-06-22T14:12:06;36.00;68.60
16229;DHT22;8222;51.462;12.630;2023-06-22T14:14:59;35.90;69.10
16229;DHT22;8222;51.462;12.630;2023-06-22T14:17:54;35.80;70.30
16229;DHT22;8222;51.462;12.630;2023-06-22T14:20:32;36.20;69.90
16229;DHT22;8222;51.462;12.630;2023-06-22T14:23:29;36.40;69.20
16229;DHT22;8222;51.462;12.630;2023-06-22T14:26:47;36.30;69.90
16229;DHT22;8222;51.462;12.630;2023-06-22T14:36:21;35.90;70.10
16229;DHT22;8222;51.462;12.630;2023-06-22T14:42:50;35.70;69.20
16229;DHT22;8222;51.462;12.630;2023-06-22T14:52:51;36.00;71.80
16229;DHT22;8222;51.462;12.630;2023-06-22T15:03:09;36.20;68.40
16229;DHT22;8222;51.462;12.630;2023-06-22T15:12:37;35.40;70.60
16229;DHT22;8222;51.462;12.630;2023-06-22T15:15:22;35.50;70.40
16229;DHT22;8222;51.462;12.630;2023-06-22T15:17:54;35.80;69.60
16229;DHT22;8222;51.462;12.630;2023-06-22T15:21:03;35.60;70.60
16229;DHT22;8222;51.462;12.630;2023-06-22T15:23:49;35.50;70.60
16229;DHT22;8222;51.462;12.630;2023-06-22T15:26:38;35.20;71.40
16229;DHT22;8222;51.462;12.630;2023-06-22T15:33:06;35.50;69.70
16229;DHT22;8222;51.462;12.630;2023-06-22T15:35:51;35.00;71.30
16229;DHT22;8222;51.462;12.630;2023-06-22T15:42:09;34.60;73.20
16229;DHT22;8222;51.462;12.630;2023-06-22T15:45:33;34.60;73.50
16229;DHT22;8222;51.462;12.630;2023-06-22T15:54:23;35.40;71.90
16229;DHT22;8222;51.462;12.630;2023-06-22T15:57:24;36.00;70.90
16229;DHT22;8222;51.462;12.630;2023-06-22T16:00:51;36.50;69.70
16229;DHT22;8222;51.462;12.630;2023-06-22T16:04:00;36.40;69.20
16229;DHT22;8222;51.462;12.630;2023-06-22T16:10:14;36.50;68.70
16229;DHT22;8222;51.462;12.630;2023-06-22T16:17:13;36.30;69.20
16229;DHT22;8222;51.462;12.630;2023-06-22T16:23:53;36.20;68.40
16229;DHT22;8222;51.462;12.630;2023-06-22T16:27:08;36.10;68.90
16229;DHT22;8222;51.462;12.630;2023-06-22T16:36:33;35.70;69.40
16229;DHT22;8222;51.462;12.630;2023-06-22T16:46:13;34.90;70.50
16229;DHT22;8222;51.462;12.630;2023-06-22T16:50:05;34.30;72.20
16229;DHT22;8222;51.462;12.630;2023-06-22T16:52:51;33.90;73.40
16229;DHT22;8222;51.462;12.630;2023-06-22T16:55:32;33.60;74.40
16229;DHT22;8222;51.462;12.630;2023-06-22T16:58:08;33.30;75.30
16229;DHT22;8222;51.462;12.630;2023-06-22T17:01:20;33.20;76.80
16229;DHT22;8222;51.462;12.630;2023-06-22T17:04:13;33.00;77.30
16229;DHT22;8222;51.462;12.630;2023-06-22T17:07:04;32.90;77.40
16229;DHT22;8222;51.462;12.630;2023-06-22T17:09:59;32.90;77.30
16229;DHT22;8222;51.462;12.630;2023-06-22T17:12:39;32.70;78.50
16229;DHT22;8222;51.462;12.630;2023-06-22T17:19:44;32.40;80.50
16229;DHT22;8222;51.462;12.630;2023-06-22T17:22:19;32.20;80.00
16229;DHT22;8222;51.462;12.630;2023-06-22T17:25:21;32.20;80.30
16229;DHT22;8222;51.462;12.630;2023-06-22T17:28:56;32.20;80.50
16229;DHT22;8222;51.462;12.630;2023-06-22T17:32:07;32.40;81.30
16229;DHT22;8222;51.462;12.630;2023-06-22T17:38:30;32.30;82.40
16229;DHT22;8222;51.462;12.630;2023-06-22T17:41:14;32.20;83.50
16229;DHT22;8222;51.462;12.630;2023-06-22T17:43:46;32.10;83.90
16229;DHT22;8222;51.462;12.630;2023-06-22T17:46:18;32.00;84.90
16229;DHT22;8222;51.462;12.630;2023-06-22T17:49:05;31.90;85.60
16229;DHT22;8222;51.462;12.630;2023-06-22T17:51:44;32.00;85.20
16229;DHT22;8222;51.462;12.630;2023-06-22T17:54:51;31.80;85.60
16229;DHT22;8222;51.462;12.630;2023-06-22T18:00:46;31.50;88.80
16229;DHT22;8222;51.462;12.630;2023-06-22T18:03:24;31.40;88.80
16229;DHT22;8222;51.462;12.630;2023-06-22T18:09:18;31.30;90.10
16229;DHT22;8222;51.462;12.630;2023-06-22T18:12:16;31.10;90.90
16229;DHT22;8222;51.462;12.630;2023-06-22T18:14:58;31.00;91.70
16229;DHT22;8222;51.462;12.630;2023-06-22T18:17:35;30.90;92.50
16229;DHT22;8222;51.462;12.630;2023-06-22T18:20:10;30.90;92.60
16229;DHT22;8222;51.462;12.630;2023-06-22T18:25:54;30.80;93.80
16229;DHT22;8222;51.462;12.630;2023-06-22T18:28:34;30.60;94.20
16229;DHT22;8222;51.462;12.630;2023-06-22T18:34:41;30.40;96.20
16229;DHT22;8222;51.462;12.630;2023-06-22T18:37:20;30.50;96.30
16229;DHT22;8222;51.462;12.630;2023-06-22T18:39:56;30.60;96.50
16229;DHT22;8222;51.462;12.630;2023-06-22T18:42:42;30.40;97.10
16229;DHT22;8222;51.462;12.630;2023-06-22T18:45:34;30.30;98.10
16229;DHT22;8222;51.462;12.630;2023-06-22T18:48:10;30.40;98.60
16229;DHT22;8222;51.462;12.630;2023-06-22T18:50:44;30.20;99.30
16229;DHT22;8222;51.462;12.630;2023-06-22T18:53:29;30.10;99.90
16229;DHT22;8222;51.462;12.630;2023-06-22T18:56:16;30.00;99.90
16229;DHT22;8222;51.462;12.630;2023-06-22T18:58:55;30.10;99.90
16229;DHT22;8222;51.462;12.630;2023-06-22T19:01:40;30.00;99.90
16229;DHT22;8222;51.462;12.630;2023-06-22T19:04:20;29.80;99.90
16229;DHT22;8222;51.462;12.630;2023-06-22T19:09:17;29.70;99.90
16229;DHT22;8222;51.462;12.630;2023-06-22T19:11:47;29.60;99.90
16229;DHT22;8222;51.462;12.630;2023-06-22T19:14:20;29.70;99.90
16229;DHT22;8222;51.462;12.630;2023-06-22T19:17:06;29.70;99.90
16229;DHT22;8222;51.462;12.630;2023-06-22T19:19:38;29.70;99.90
16229;DHT22;8222;51.462;12.630;2023-06-22T19:22:27;29.70;99.90
16229;DHT22;8222;51.462;12.630;2023-06-22T19:25:24;29.60;99.90
16229;DHT22;8222;51.462;12.630;2023-06-22T19:27:53;29.60;99.90
16229;DHT22;8222;51.462;12.630;2023-06-22T19:30:27;29.50;99.90
16229;DHT22;8222;51.462;12.630;2023-06-22T19:32:59;29.50;99.90
16229;DHT22;8222;51.462;12.630;2023-06-22T19:35:41;29.40;99.90
16229;DHT22;8222;51.462;12.630;2023-06-22T19:38:08;29.30;99.90
16229;DHT22;8222;51.462;12.630;2023-06-22T19:40:40;29.20;99.90
16229;DHT22;8222;51.462;12.630;2023-06-22T19:43:08;29.20;99.90
16229;DHT22;8222;51.462;12.630;2023-06-22T19:45:38;29.10;99.90
16229;DHT22;8222;51.462;12.630;2023-06-22T19:48:12;29.10;99.90
16229;DHT22;8222;51.462;12.630;2023-06-22T19:50:55;29.10;99.90
16229;DHT22;8222;51.462;12.630;2023-06-22T19:53:31;29.20;99.90
16229;DHT22;8222;51.462;12.630;2023-06-22T19:55:59;29.10;99.90
16229;DHT22;8222;51.462;12.630;2023-06-22T19:58:36;29.00;99.90
16229;DHT22;8222;51.462;12.630;2023-06-22T20:01:07;29.10;99.90
16229;DHT22;8222;51.462;12.630;2023-06-22T20:03:39;28.90;99.90
16229;DHT22;8222;51.462;12.630;2023-06-22T20:06:15;28.90;99.90
16229;DHT22;8222;51.462;12.630;2023-06-22T20:09:04;28.90;99.90
16229;DHT22;8222;51.462;12.630;2023-06-22T20:11:55;29.00;99.90
16229;DHT22;8222;51.462;12.630;2023-06-22T20:14:38;29.00;99.90
16229;DHT22;8222;51.462;12.630;2023-06-22T20:17:17;28.90;99.90
16229;DHT22;8222;51.462;12.630;2023-06-22T20:19:55;28.50;99.90
16229;DHT22;8222;51.462;12.630;2023-06-22T20:22:21;27.90;99.90
16229;DHT22;8222;51.462;12.630;2023-06-22T20:24:51;27.30;99.90
16229;DHT22;8222;51.462;12.630;2023-06-22T20:27:21;26.80;99.90
16229;DHT22;8222;51.462;12.630;2023-06-22T20:29:54;26.60;99.90
16229;DHT22;8222;51.462;12.630;2023-06-22T20:32:22;26.30;99.90
16229;DHT22;8222;51.462;12.630;2023-06-22T20:34:54;26.10;99.90
16229;DHT22;8222;51.462;12.630;2023-06-22T20:37:19;25.90;99.90